Terminal Aerodrome Forecast
Issued by NWS

Home | Current Version | Previous Version | Text Only | Print | Product List | Glossary On
Versions: 1 2 3 4 5 6 7 8 9 10 11 12 13 14 15 16 17 18 19 20 21
199
FTUS41 KPBZ 292322
TAFDUJ
TAF
KDUJ 292322Z 3000/3024 35005KT P6SM OVC008
     FM301200 VRB03KT P6SM BKN015
     FM301600 12006KT P6SM BKN040
     FM302300 12006KT 5SM -RA OVC035=

USA.gov is the U.S. government's official web portal to all federal, state and local government web resources and services.